Aviation Digital Data Service (ADDS)

Output produced by METARs form (0308 UTC 22 April 2018)
found at http://aviationweather.gov/adds/metars/
 
METAR text: LRCV 220300Z AUTO 28005KT 9999 NCD 09/08 Q1015
Conditions at: LRCV (CRAIOVA , RO) observed 0300 UTC 22 April 2018
Temperature: 9.0°C (48°F)
Dewpoint: 8.0°C (46°F) [RH = 93%]
Pressure (altimeter): 29.97 inches Hg (1015.0 mb)
Winds: from the W (280 degrees) at 6 MPH (5 knots; 2.6 m/s)
Visibility: 6 or more miles (10+ km)
Ceiling: at least 12,000 feet AGL
Clouds: sky clear below 12,000 feet AGL
Weather: no significant weather observed at this time

Forecast for: LRCV (CRAIOVA , RO)
Text: TAF LRCV 220200Z 2203/2212 27006KT CAVOK
Forecast period: 0300 to 1200 UTC 22 April 2018
Forecast type: FROM: standard forecast or significant change
Winds: from the W (270 degrees) at 7 MPH (6 knots; 3.1 m/s)
Visibility: 6 or more miles (10+ km)
Clouds: not forecast
Weather: NSW  (no significant weather)